createdAt,value
2022-12-20T00:02:37.933Z,2.20
2022-12-20T00:05:23.063Z,2.30
2022-12-20T00:08:09.613Z,2.40
2022-12-20T00:10:54.758Z,2.40
2022-12-20T00:13:39.996Z,2.30
2022-12-20T00:16:27.991Z,2.30
2022-12-20T00:19:13.367Z,2.30
2022-12-20T00:21:58.697Z,2.30
2022-12-20T00:24:44.521Z,2.40
2022-12-20T00:27:29.851Z,2.40
2022-12-20T00:30:16.601Z,2.30
2022-12-20T00:33:02.083Z,2.40
2022-12-20T00:35:47.344Z,2.50
2022-12-20T00:38:33.914Z,2.40
2022-12-20T00:41:22.162Z,2.40
2022-12-20T00:44:07.368Z,2.40
2022-12-20T00:46:52.827Z,2.40
2022-12-20T00:49:38.168Z,2.40
2022-12-20T00:52:23.637Z,2.30
2022-12-20T00:55:09.254Z,2.40
2022-12-20T00:57:54.540Z,2.50
2022-12-20T01:00:40.323Z,2.50
2022-12-20T01:03:26.714Z,2.50
2022-12-20T01:06:12.253Z,2.60
2022-12-20T01:08:57.976Z,2.60
2022-12-20T01:11:43.028Z,2.60
2022-12-20T01:14:28.456Z,2.60
2022-12-20T01:17:13.824Z,2.60
2022-12-20T01:19:59.329Z,2.70
2022-12-20T01:22:47.642Z,2.80
2022-12-20T01:25:33.250Z,2.80
2022-12-20T01:28:18.665Z,2.90
2022-12-20T01:31:10.862Z,2.80
2022-12-20T01:33:56.430Z,2.80
2022-12-20T01:36:42.206Z,2.80
2022-12-20T01:39:27.568Z,2.80
2022-12-20T01:42:16.232Z,2.70
2022-12-20T01:45:01.948Z,2.70
2022-12-20T01:47:47.707Z,2.60
2022-12-20T01:50:34.366Z,2.60
2022-12-20T01:53:23.024Z,2.60
2022-12-20T01:56:09.249Z,2.60
2022-12-20T01:58:55.998Z,2.70
2022-12-20T02:01:43.007Z,2.70
2022-12-20T02:04:28.790Z,2.70
2022-12-20T02:07:20.213Z,2.70
2022-12-20T02:10:07.233Z,2.90
2022-12-20T02:13:03.052Z,3.00
2022-12-20T02:15:56.366Z,3.00
2022-12-20T02:19:09.890Z,3.10
2022-12-20T02:22:02.811Z,3.00
2022-12-20T02:24:57.127Z,2.80
2022-12-20T02:28:09.820Z,2.80
2022-12-20T02:30:57.301Z,2.70
2022-12-20T02:33:45.323Z,2.70
2022-12-20T02:36:30.844Z,2.70
2022-12-20T02:39:17.209Z,2.60
2022-12-20T02:42:07.006Z,2.60
2022-12-20T02:45:16.784Z,2.60
2022-12-20T02:48:11.259Z,2.50
2022-12-20T02:50:59.345Z,2.50
2022-12-20T02:53:45.064Z,2.60
2022-12-20T02:56:36.056Z,2.70
2022-12-20T02:59:25.905Z,2.70
2022-12-20T03:02:11.464Z,2.80
2022-12-20T03:04:58.317Z,2.80
2022-12-20T03:07:43.809Z,2.80
2022-12-20T03:10:29.279Z,2.90
2022-12-20T03:13:14.837Z,3.00
2022-12-20T03:16:00.595Z,2.90
2022-12-20T03:18:46.250Z,2.90
2022-12-20T03:21:31.440Z,2.80
2022-12-20T03:24:17.667Z,2.80
2022-12-20T03:27:02.830Z,2.70
2022-12-20T03:29:48.171Z,2.80
2022-12-20T03:32:33.693Z,2.90
2022-12-20T03:35:19.135Z,3.00
2022-12-20T03:38:04.476Z,3.00
2022-12-20T03:40:49.959Z,3.10
2022-12-20T03:43:35.396Z,2.90
2022-12-20T03:46:20.844Z,2.80
2022-12-20T03:49:06.278Z,2.70
2022-12-20T03:51:51.831Z,2.60
2022-12-20T03:54:36.905Z,2.50
2022-12-20T03:57:22.639Z,2.50
2022-12-20T04:00:08.290Z,2.50
2022-12-20T04:02:53.857Z,2.50
2022-12-20T04:05:39.400Z,2.50
2022-12-20T04:08:24.844Z,2.60
2022-12-20T04:11:16.669Z,2.60
2022-12-20T04:14:01.848Z,2.70
2022-12-20T04:16:47.291Z,2.60
2022-12-20T04:19:32.681Z,2.70
2022-12-20T04:22:18.068Z,2.70
2022-12-20T04:25:03.855Z,2.70
2022-12-20T04:27:49.164Z,2.60
2022-12-20T04:30:34.639Z,2.60
2022-12-20T04:33:20.001Z,2.60
2022-12-20T04:36:05.646Z,2.70
2022-12-20T04:38:50.853Z,2.70
2022-12-20T04:41:36.197Z,2.60
2022-12-20T04:44:21.639Z,2.60
2022-12-20T04:47:07.045Z,2.60
2022-12-20T04:49:52.507Z,2.70
2022-12-20T04:52:56.336Z,2.70
2022-12-20T04:55:41.946Z,2.80
2022-12-20T04:58:27.167Z,3.00
2022-12-20T05:01:12.978Z,3.00
2022-12-20T05:03:58.200Z,2.80
2022-12-20T05:06:43.703Z,2.60
2022-12-20T05:09:29.522Z,2.60
2022-12-20T05:12:14.880Z,2.60
2022-12-20T05:15:00.138Z,2.70
2022-12-20T05:17:45.432Z,2.90
2022-12-20T05:20:31.377Z,2.90
2022-12-20T05:23:35.104Z,2.80
2022-12-20T05:26:21.029Z,2.80
2022-12-20T05:29:06.638Z,2.90
2022-12-20T05:31:52.538Z,2.90
2022-12-20T05:34:37.813Z,2.90
2022-12-20T05:37:23.135Z,2.80
2022-12-20T05:40:09.165Z,2.70
2022-12-20T05:42:55.074Z,2.80
2022-12-20T05:45:40.312Z,2.80
2022-12-20T05:48:25.849Z,2.80
2022-12-20T05:51:11.202Z,2.80
2022-12-20T05:53:56.549Z,2.80
2022-12-20T05:56:42.060Z,2.90
2022-12-20T05:59:27.337Z,2.90
2022-12-20T06:02:12.919Z,2.90
2022-12-20T06:04:59.070Z,2.90
2022-12-20T06:07:44.416Z,2.90
2022-12-20T06:10:29.845Z,2.80
2022-12-20T06:13:15.667Z,2.80
2022-12-20T06:16:00.983Z,2.80
2022-12-20T06:18:46.639Z,2.80
2022-12-20T06:21:32.162Z,2.80
2022-12-20T06:24:17.527Z,2.90
2022-12-20T06:27:03.554Z,2.90
2022-12-20T06:29:52.037Z,2.90
2022-12-20T06:32:38.863Z,2.80
2022-12-20T06:35:24.508Z,2.80
2022-12-20T06:38:09.724Z,2.80
2022-12-20T06:40:55.123Z,2.80
2022-12-20T06:43:40.656Z,2.80
2022-12-20T06:46:27.331Z,2.90
2022-12-20T06:49:13.728Z,3.00
2022-12-20T06:51:59.203Z,3.10
2022-12-20T06:54:44.659Z,3.00
2022-12-20T06:57:29.878Z,3.00
2022-12-20T07:00:16.542Z,2.90
2022-12-20T07:03:01.887Z,2.90
2022-12-20T07:05:56.222Z,2.80
2022-12-20T07:08:41.544Z,2.80
2022-12-20T07:11:26.900Z,2.70
2022-12-20T07:14:12.174Z,2.70
2022-12-20T07:16:57.607Z,2.80
2022-12-20T07:19:48.704Z,2.80
2022-12-20T07:22:35.676Z,2.90
2022-12-20T07:25:21.312Z,2.90
2022-12-20T07:28:06.879Z,3.00
2022-12-20T07:30:52.267Z,3.00
2022-12-20T07:33:38.774Z,3.00
2022-12-20T07:36:23.776Z,3.10
2022-12-20T07:39:09.201Z,3.10
2022-12-20T07:41:55.464Z,3.10
2022-12-20T07:44:40.708Z,3.20
2022-12-20T07:47:26.140Z,3.10
2022-12-20T07:50:11.970Z,3.00
2022-12-20T07:52:58.579Z,3.10
2022-12-20T07:55:44.385Z,3.10
2022-12-20T07:58:30.986Z,3.10
2022-12-20T08:01:16.044Z,3.10
2022-12-20T08:04:09.726Z,3.10
2022-12-20T08:06:58.717Z,3.20
2022-12-20T08:09:45.235Z,3.30
2022-12-20T08:12:30.871Z,3.40
2022-12-20T08:15:16.700Z,3.50
2022-12-20T08:18:02.901Z,3.50
2022-12-20T08:20:48.433Z,3.40
2022-12-20T08:23:34.013Z,3.30
2022-12-20T08:26:19.621Z,3.30
2022-12-20T08:29:05.158Z,3.40
2022-12-20T08:31:50.968Z,3.50
2022-12-20T08:34:36.632Z,3.50
2022-12-20T08:37:22.325Z,3.50
2022-12-20T08:40:09.026Z,3.60
2022-12-20T08:42:54.699Z,3.50
2022-12-20T08:45:40.377Z,3.40
2022-12-20T08:48:25.700Z,3.50
2022-12-20T08:51:11.949Z,3.50
2022-12-20T08:53:57.466Z,3.50
2022-12-20T08:57:06.604Z,3.50
2022-12-20T08:59:52.252Z,3.50
2022-12-20T09:02:38.537Z,3.50
2022-12-20T09:05:24.143Z,3.40
2022-12-20T09:08:09.607Z,3.40
2022-12-20T09:11:02.954Z,3.40
2022-12-20T09:13:50.139Z,3.50
2022-12-20T09:16:35.283Z,3.40
2022-12-20T09:19:20.702Z,3.50
2022-12-20T09:22:06.036Z,3.40
2022-12-20T09:24:51.355Z,3.40
2022-12-20T09:27:36.631Z,3.50
2022-12-20T09:30:23.149Z,3.50
2022-12-20T09:33:10.537Z,3.50
2022-12-20T09:35:56.504Z,3.50
2022-12-20T09:38:41.796Z,3.50
2022-12-20T09:41:39.504Z,3.60
2022-12-20T09:44:30.512Z,3.60
2022-12-20T09:47:20.108Z,3.50
2022-12-20T09:50:08.182Z,3.60
2022-12-20T09:53:10.228Z,3.60
2022-12-20T09:56:26.536Z,3.60
2022-12-20T09:59:13.661Z,3.70
2022-12-20T10:02:13.215Z,3.70
2022-12-20T10:05:04.380Z,3.80
2022-12-20T10:08:21.042Z,3.80
2022-12-20T10:11:49.858Z,3.90
2022-12-20T10:15:02.122Z,4.00
2022-12-20T10:18:19.527Z,4.00
2022-12-20T10:21:41.731Z,4.00
2022-12-20T10:24:32.672Z,4.10
2022-12-20T10:27:20.683Z,4.10
2022-12-20T10:30:18.721Z,4.10
2022-12-20T10:33:04.086Z,4.00
2022-12-20T10:35:50.721Z,4.00
2022-12-20T10:38:48.149Z,4.10
2022-12-20T10:41:45.447Z,4.00
2022-12-20T10:44:30.852Z,4.00
2022-12-20T10:47:44.609Z,4.00
2022-12-20T10:50:30.626Z,4.00
2022-12-20T10:53:25.461Z,4.00
2022-12-20T10:56:29.403Z,4.10
2022-12-20T10:59:21.225Z,4.10
2022-12-20T11:02:41.580Z,4.20
2022-12-20T11:05:27.775Z,4.20
2022-12-20T11:08:35.326Z,4.30
2022-12-20T11:11:24.753Z,4.30
2022-12-20T11:14:16.268Z,4.20
2022-12-20T11:17:07.850Z,4.10
2022-12-20T11:20:32.457Z,4.20
2022-12-20T11:23:44.621Z,4.00
2022-12-20T11:26:44.159Z,4.10
2022-12-20T11:30:04.213Z,4.10
2022-12-20T11:33:11.171Z,4.20
2022-12-20T11:36:14.334Z,4.20
2022-12-20T11:39:27.354Z,4.20
2022-12-20T11:42:36.990Z,4.10
2022-12-20T11:46:00.123Z,4.10
2022-12-20T11:49:11.014Z,4.10
2022-12-20T11:52:10.429Z,4.10
2022-12-20T11:55:25.088Z,4.10
2022-12-20T11:58:19.066Z,4.00
2022-12-20T12:01:13.636Z,4.10
2022-12-20T12:04:16.509Z,4.20
2022-12-20T12:07:23.807Z,4.00
2022-12-20T12:10:25.550Z,4.00
2022-12-20T12:13:33.428Z,4.00
2022-12-20T12:16:20.960Z,4.10
2022-12-20T12:19:11.230Z,4.10
2022-12-20T12:22:05.639Z,4.10
2022-12-20T12:24:57.656Z,4.10
2022-12-20T12:27:43.028Z,4.10
2022-12-20T12:30:40.436Z,4.20
2022-12-20T12:33:38.558Z,4.30
2022-12-20T12:36:46.807Z,4.30
2022-12-20T12:39:47.145Z,4.50
2022-12-20T12:43:09.020Z,4.50
2022-12-20T12:45:59.977Z,4.50
2022-12-20T12:48:52.467Z,4.50
2022-12-20T12:51:41.339Z,4.40
2022-12-20T12:54:37.376Z,4.30
2022-12-20T12:57:22.822Z,4.40
2022-12-20T13:00:46.789Z,4.50
2022-12-20T13:04:06.444Z,4.50
2022-12-20T13:07:22.475Z,4.60
2022-12-20T13:10:20.334Z,4.70
2022-12-20T13:13:23.266Z,4.60
2022-12-20T13:17:02.352Z,4.60
2022-12-20T13:19:44.649Z,4.60
2022-12-20T13:22:32.450Z,4.60
2022-12-20T13:25:35.288Z,4.50
2022-12-20T13:28:24.720Z,4.40
2022-12-20T13:31:16.735Z,4.30
2022-12-20T13:34:41.560Z,4.30
2022-12-20T13:37:54.762Z,4.30
2022-12-20T13:40:49.872Z,4.30
2022-12-20T13:43:47.438Z,4.40
2022-12-20T13:47:02.511Z,4.40
2022-12-20T13:49:51.369Z,4.40
2022-12-20T13:52:44.259Z,4.40
2022-12-20T13:55:40.211Z,4.40
2022-12-20T13:58:34.588Z,4.40
2022-12-20T14:01:25.271Z,4.40
2022-12-20T14:04:14.861Z,4.50
2022-12-20T14:07:02.860Z,4.50
2022-12-20T14:09:59.921Z,4.50
2022-12-20T14:12:46.716Z,4.50
2022-12-20T14:15:39.055Z,4.50
2022-12-20T14:18:26.821Z,4.30
2022-12-20T14:21:13.707Z,4.20
2022-12-20T14:24:06.255Z,4.20
2022-12-20T14:27:04.227Z,4.20
2022-12-20T14:29:53.497Z,4.20
2022-12-20T14:32:50.255Z,4.30
2022-12-20T14:35:36.640Z,4.30
2022-12-20T14:38:31.235Z,4.40
2022-12-20T14:41:38.840Z,4.30
2022-12-20T14:44:30.483Z,4.30
2022-12-20T14:47:27.712Z,4.30
2022-12-20T14:50:29.605Z,4.20
2022-12-20T14:53:25.501Z,4.20
2022-12-20T14:56:22.623Z,4.20
2022-12-20T14:59:18.383Z,4.30
2022-12-20T15:02:42.374Z,4.20
2022-12-20T15:05:38.731Z,4.20
2022-12-20T15:08:33.066Z,4.10
2022-12-20T15:11:34.827Z,4.10
2022-12-20T15:14:44.277Z,4.10
2022-12-20T15:17:30.321Z,4.10
2022-12-20T15:20:19.214Z,4.10
2022-12-20T15:23:06.972Z,4.20
2022-12-20T15:25:55.005Z,4.20
2022-12-20T15:28:46.655Z,4.20
2022-12-20T15:31:40.553Z,4.20
2022-12-20T15:34:33.464Z,4.30
2022-12-20T15:37:29.490Z,4.30
2022-12-20T15:40:17.734Z,4.30
2022-12-20T15:43:06.087Z,4.40
2022-12-20T15:45:54.570Z,4.60
2022-12-20T15:48:42.462Z,4.60
2022-12-20T15:51:34.720Z,4.70
2022-12-20T15:54:27.866Z,4.70
2022-12-20T15:57:21.005Z,4.70
2022-12-20T16:00:07.647Z,4.60
2022-12-20T16:02:55.655Z,4.60
2022-12-20T16:05:44.101Z,4.50
2022-12-20T16:08:32.702Z,4.60
2022-12-20T16:11:27.109Z,4.60
2022-12-20T16:14:19.300Z,4.60
2022-12-20T16:17:10.042Z,4.60
2022-12-20T16:19:55.722Z,4.70
2022-12-20T16:22:45.269Z,4.60
2022-12-20T16:25:43.953Z,4.60
2022-12-20T16:28:31.098Z,4.50
2022-12-20T16:31:38.771Z,4.60
2022-12-20T16:34:30.219Z,4.60
2022-12-20T16:37:19.036Z,4.70
2022-12-20T16:40:11.505Z,4.70
2022-12-20T16:43:02.297Z,4.80
2022-12-20T16:45:52.228Z,4.80
2022-12-20T16:48:38.068Z,4.90
2022-12-20T16:51:27.475Z,4.80
2022-12-20T16:54:23.205Z,4.80
2022-12-20T16:57:09.591Z,4.80
2022-12-20T16:59:54.784Z,4.80
2022-12-20T17:02:40.356Z,4.80
2022-12-20T17:05:29.517Z,4.80
2022-12-20T17:11:23.857Z,4.90
2022-12-20T17:14:13.339Z,4.90
2022-12-20T17:16:59.070Z,4.90
2022-12-20T17:19:44.931Z,4.90
2022-12-20T17:25:35.203Z,4.90
2022-12-20T17:28:20.443Z,4.80
2022-12-20T17:31:24.583Z,4.90
2022-12-20T17:34:21.996Z,4.80
2022-12-20T17:37:08.184Z,4.80
2022-12-20T17:39:53.617Z,4.80
2022-12-20T17:42:38.971Z,4.90
2022-12-20T17:45:28.060Z,4.80
2022-12-20T17:48:13.367Z,4.80
2022-12-20T17:50:58.858Z,4.80
2022-12-20T17:53:46.864Z,4.80
2022-12-20T17:56:34.549Z,4.80
2022-12-20T17:59:20.353Z,4.80
2022-12-20T18:02:25.011Z,4.80
2022-12-20T18:05:13.617Z,4.80
2022-12-20T18:07:59.054Z,4.80
2022-12-20T18:10:45.683Z,5.00
2022-12-20T18:13:31.045Z,5.10
2022-12-20T18:16:19.818Z,5.00
2022-12-20T18:19:06.070Z,5.00
2022-12-20T18:21:51.218Z,5.00
2022-12-20T18:24:36.553Z,4.90
2022-12-20T18:27:27.035Z,4.90
2022-12-20T18:30:15.927Z,4.90
2022-12-20T18:33:01.256Z,4.80
2022-12-20T18:35:46.732Z,4.80
2022-12-20T18:38:33.049Z,4.80
2022-12-20T18:41:26.074Z,4.80
2022-12-20T18:44:11.936Z,4.80
2022-12-20T18:46:56.966Z,4.70
2022-12-20T18:49:42.421Z,4.60
2022-12-20T18:52:27.776Z,4.50
2022-12-20T18:55:12.980Z,4.50
2022-12-20T18:57:58.238Z,4.60
2022-12-20T19:00:43.644Z,4.50
2022-12-20T19:03:30.119Z,4.50
2022-12-20T19:06:15.362Z,4.50
2022-12-20T19:09:01.920Z,4.60
2022-12-20T19:11:51.602Z,4.50
2022-12-20T19:14:40.247Z,4.50
2022-12-20T19:17:25.626Z,4.70
2022-12-20T19:20:11.138Z,4.70
2022-12-20T19:22:56.659Z,4.60
2022-12-20T19:25:41.945Z,4.70
2022-12-20T19:28:27.421Z,4.70
2022-12-20T19:31:25.029Z,4.70
2022-12-20T19:34:12.521Z,4.90
2022-12-20T19:36:57.761Z,4.90
2022-12-20T19:39:43.273Z,5.00
2022-12-20T19:42:30.555Z,4.80
2022-12-20T19:45:15.709Z,4.90
2022-12-20T19:48:01.059Z,4.90
2022-12-20T19:50:46.420Z,4.80
2022-12-20T19:53:32.218Z,4.60
2022-12-20T19:56:19.880Z,4.60
2022-12-20T19:59:04.965Z,4.50
2022-12-20T20:01:50.667Z,4.50
2022-12-20T20:04:36.107Z,4.40
2022-12-20T20:07:21.410Z,4.50
2022-12-20T20:10:07.541Z,4.50
2022-12-20T20:12:52.508Z,4.50
2022-12-20T20:15:37.794Z,4.60
2022-12-20T20:18:23.704Z,4.70
2022-12-20T20:21:12.248Z,4.80
2022-12-20T20:23:57.451Z,4.70
2022-12-20T20:26:42.793Z,4.70
2022-12-20T20:29:28.141Z,4.70
2022-12-20T20:32:13.578Z,4.90
2022-12-20T20:34:58.711Z,4.70
2022-12-20T20:37:44.910Z,4.80
2022-12-20T20:40:30.213Z,4.70
2022-12-20T20:43:15.458Z,4.80
2022-12-20T20:46:00.917Z,4.80
2022-12-20T20:48:46.307Z,4.80
2022-12-20T20:51:31.666Z,4.70
2022-12-20T20:54:17.148Z,4.60
2022-12-20T20:57:02.553Z,4.50
2022-12-20T20:59:48.029Z,4.50
2022-12-20T21:02:33.383Z,4.50
2022-12-20T21:08:23.864Z,4.60
2022-12-20T21:11:09.969Z,4.70
2022-12-20T21:13:55.749Z,4.60
2022-12-20T21:16:41.255Z,4.60
2022-12-20T21:19:26.610Z,4.50
2022-12-20T21:22:12.108Z,4.50
2022-12-20T21:24:57.691Z,4.60
2022-12-20T21:27:43.011Z,4.60
2022-12-20T21:30:27.948Z,4.50
2022-12-20T21:33:13.351Z,4.60
2022-12-20T21:36:07.004Z,4.50
2022-12-20T21:38:55.011Z,4.50
2022-12-20T21:41:40.166Z,4.50
2022-12-20T21:44:25.565Z,4.50
2022-12-20T21:47:11.258Z,4.40
2022-12-20T21:49:57.363Z,4.50
2022-12-20T21:52:42.759Z,4.40
2022-12-20T21:55:28.052Z,4.40
2022-12-20T21:58:13.380Z,4.60
2022-12-20T22:00:59.403Z,4.60
2022-12-20T22:03:45.367Z,4.50
2022-12-20T22:06:31.441Z,4.50
2022-12-20T22:09:17.058Z,4.50
2022-12-20T22:12:02.308Z,4.60
2022-12-20T22:14:47.855Z,4.50
2022-12-20T22:17:33.446Z,4.70
2022-12-20T22:20:18.525Z,4.70
2022-12-20T22:23:04.690Z,4.80
2022-12-20T22:25:49.775Z,4.90
2022-12-20T22:28:35.741Z,4.80
2022-12-20T22:31:21.913Z,4.80
2022-12-20T22:34:07.389Z,4.90
2022-12-20T22:36:54.418Z,4.80
2022-12-20T22:39:39.758Z,4.70
2022-12-20T22:42:25.251Z,4.70
2022-12-20T22:45:11.022Z,4.70
2022-12-20T22:47:56.054Z,4.70
2022-12-20T22:50:41.868Z,4.70
2022-12-20T22:53:27.737Z,4.80
2022-12-20T22:56:13.972Z,4.80
2022-12-20T22:58:59.328Z,5.10
2022-12-20T23:01:44.888Z,5.00
2022-12-20T23:04:30.196Z,5.00
2022-12-20T23:07:15.751Z,4.90
2022-12-20T23:10:01.246Z,4.90
2022-12-20T23:13:05.129Z,4.90
2022-12-20T23:15:50.638Z,4.90
2022-12-20T23:18:35.987Z,4.80
2022-12-20T23:21:39.936Z,4.70
2022-12-20T23:24:25.616Z,4.80
2022-12-20T23:27:10.845Z,4.70
2022-12-20T23:29:56.140Z,4.80
2022-12-20T23:32:45.329Z,4.70
2022-12-20T23:35:30.501Z,4.70
2022-12-20T23:38:15.748Z,4.70
2022-12-20T23:41:05.671Z,4.80
2022-12-20T23:43:51.097Z,4.80
2022-12-20T23:46:36.362Z,4.80
2022-12-20T23:49:22.258Z,4.80
2022-12-20T23:52:07.680Z,4.80
2022-12-20T23:54:53.125Z,4.70
2022-12-20T23:57:38.591Z,4.70
